Time;durP1;ratioP1;P1;durP2;ratioP2;P2;SDS_P1;SDS_P2;PMS_P1;PMS_P2;Temp;Humidity;BMP_temperature;BMP_pressure;BME280_temperature;BME280_humidity;BME280_pressure;Samples;Min_cycle;Max_cycle;Signal;HPM_P1;HPM_P2
2021/10/28 05:01:41;;;;;;;95.55;51.50;;;;;;;;;;5109782;23;20052;-66
2021/10/28 05:04:07;;;;;;;97.03;52.65;;;;;;;;;;4915727;29;20102;-66
2021/10/28 05:06:33;;;;;;;98.55;52.83;;;;;;;;;;4916490;29;20083;-65
2021/10/28 05:08:59;;;;;;;94.65;54.13;;;;;;;;;;4916237;29;20043;-66
2021/10/28 05:11:27;;;;;;;91.63;52.20;;;;;;;;;;4916162;29;20020;-63
2021/10/28 05:13:53;;;;;;;94.78;51.90;;;;;;;;;;4916160;29;20032;-66
2021/10/28 05:16:20;;;;;;;96.95;52.25;;;;;;;;;;4916240;29;20380;-68
2021/10/28 05:18:46;;;;;;;101.80;54.65;;;;;;;;;;4916118;29;20032;-67
2021/10/28 05:21:14;;;;;;;98.75;53.70;;;;;;;;;;4915903;29;20546;-67
2021/10/28 05:23:41;;;;;;;99.03;54.38;;;;;;;;;;4915904;29;20028;-68
2021/10/28 05:26:07;;;;;;;103.40;55.00;;;;;;;;;;4916121;29;20036;-69
2021/10/28 05:28:34;;;;;;;113.60;56.30;;;;;;;;;;4916081;29;20055;-62
2021/10/28 05:31:00;;;;;;;115.28;54.80;;;;;;;;;;4905217;29;20048;-68
2021/10/28 05:33:26;;;;;;;111.32;56.58;;;;;;;;;;4905889;29;20028;-65
2021/10/28 05:35:52;;;;;;;107.80;58.47;;;;;;;;;;4904836;29;20027;-67
2021/10/28 05:38:19;;;;;;;108.65;57.58;;;;;;;;;;4905785;29;20150;-70
2021/10/28 05:40:45;;;;;;;108.63;58.15;;;;;;;;;;4904479;29;20032;-70
2021/10/28 05:43:11;;;;;;;113.57;65.70;;;;;;;;;;4904676;29;20031;-70
2021/10/28 05:45:38;;;;;;;117.90;65.75;;;;;;;;;;4905811;29;20027;-70
2021/10/28 05:48:05;;;;;;;131.70;67.80;;;;;;;;;;4904606;29;20032;-72
2021/10/28 05:50:32;;;;;;;135.05;75.53;;;;;;;;;;4905294;29;20028;-72
2021/10/28 05:52:59;;;;;;;119.15;70.40;;;;;;;;;;4905562;29;20040;-68
2021/10/28 05:55:26;;;;;;;122.15;68.57;;;;;;;;;;4904857;29;20131;-61
2021/10/28 05:57:52;;;;;;;120.53;67.78;;;;;;;;;;4904639;29;20060;-62
2021/10/28 06:00:19;;;;;;;119.35;66.45;;;;;;;;;;4902817;29;20027;-65
2021/10/28 06:02:45;;;;;;;126.28;68.15;;;;;;;;;;4904858;29;20063;-62
2021/10/28 06:05:12;;;;;;;126.40;67.65;;;;;;;;;;4902965;29;20032;-66
2021/10/28 06:07:39;;;;;;;118.03;65.85;;;;;;;;;;4905501;29;20365;-62
2021/10/28 06:10:06;;;;;;;123.22;65.30;;;;;;;;;;4886796;29;20572;-63
2021/10/28 06:12:36;;;;;;;132.55;69.97;;;;;;;;;;4880302;29;20049;-66
2021/10/28 06:15:03;;;;;;;132.80;70.97;;;;;;;;;;4911474;29;20055;-66
2021/10/28 06:17:44;;;;;;;156.13;75.60;;;;;;;;;;4904973;29;20064;-67
2021/10/28 06:20:10;;;;;;;143.88;75.25;;;;;;;;;;4903759;29;20108;-69
2021/10/28 06:22:36;;;;;;;149.07;75.50;;;;;;;;;;4879509;29;20064;-64
2021/10/28 06:25:03;;;;;;;159.35;79.75;;;;;;;;;;4895885;29;20092;-66
2021/10/28 06:27:29;;;;;;;154.80;78.90;;;;;;;;;;4901085;29;20060;-63
2021/10/28 06:29:55;;;;;;;155.40;80.55;;;;;;;;;;4895969;29;20031;-68
2021/10/28 06:32:21;;;;;;;149.38;76.82;;;;;;;;;;4900644;29;20069;-68
2021/10/28 06:34:49;;;;;;;147.05;79.18;;;;;;;;;;4903220;29;20024;-65
2021/10/28 06:37:16;;;;;;;151.60;80.50;;;;;;;;;;4903565;29;20366;-67
2021/10/28 06:39:43;;;;;;;148.30;79.45;;;;;;;;;;4904954;29;20024;-67
2021/10/28 06:42:13;;;;;;;147.35;79.28;;;;;;;;;;4903738;29;20035;-64
2021/10/28 06:44:39;;;;;;;152.02;78.90;;;;;;;;;;4903575;29;20359;-65
2021/10/28 06:47:06;;;;;;;156.00;79.05;;;;;;;;;;4905099;29;20024;-65
2021/10/28 06:49:34;;;;;;;152.95;78.70;;;;;;;;;;4903862;29;20028;-64
2021/10/28 06:52:03;;;;;;;150.27;78.70;;;;;;;;;;4903403;29;20478;-61
2021/10/28 06:54:37;;;;;;;156.68;81.53;;;;;;;;;;4905086;29;20020;-63
2021/10/28 06:57:19;;;;;;;161.48;81.18;;;;;;;;;;4898342;29;20041;-62
2021/10/28 07:04:58;;;;;;;176.43;94.43;;;;;;;;;;4895637;29;20053;-64
2021/10/28 07:07:32;;;;;;;195.60;99.78;;;;;;;;;;4895604;29;20481;-63
2021/10/28 07:10:03;;;;;;;173.02;89.93;;;;;;;;;;4895584;29;20032;-63
2021/10/28 07:15:18;;;;;;;169.05;85.88;;;;;;;;;;4895648;29;20029;-64
2021/10/28 07:39:47;;;;;;;150.52;78.75;;;;;;;;;;4900833;29;20051;-64
2021/10/28 08:15:26;;;;;;;136.93;71.82;;;;;;;;;;4832511;29;20785;-62
2021/10/28 08:23:13;;;;;;;133.38;70.07;;;;;;;;;;4840081;29;20030;-61
2021/10/28 08:31:09;;;;;;;130.30;70.43;;;;;;;;;;4837512;29;20052;-66
2021/10/28 08:33:35;;;;;;;130.20;72.88;;;;;;;;;;4839175;29;20033;-64
2021/10/28 08:36:09;;;;;;;139.27;75.70;;;;;;;;;;4825606;29;20034;-60
2021/10/28 08:38:35;;;;;;;131.13;73.50;;;;;;;;;;4865053;29;20064;-61
2021/10/28 08:41:03;;;;;;;133.00;76.13;;;;;;;;;;4907826;29;20072;-63
2021/10/28 08:43:31;;;;;;;130.15;73.60;;;;;;;;;;4904706;29;20028;-66
2021/10/28 08:48:54;;;;;;;134.93;73.60;;;;;;;;;;4911206;29;20048;-61
2021/10/28 08:59:55;;;;;;;129.68;69.25;;;;;;;;;;4922392;29;20103;-65
2021/10/28 09:24:41;;;;;;;103.25;56.63;;;;;;;;;;4839008;29;20065;-63
2021/10/28 09:27:25;;;;;;;98.28;57.25;;;;;;;;;;4838229;29;20034;-63
2021/10/28 09:30:09;;;;;;;104.32;58.72;;;;;;;;;;4838570;29;20473;-63
2021/10/28 09:32:42;;;;;;;111.72;61.72;;;;;;;;;;4837624;29;20053;-63
2021/10/28 09:51:36;;;;;;;92.70;53.17;;;;;;;;;;4914482;29;20024;-67
2021/10/28 09:54:19;;;;;;;81.88;47.67;;;;;;;;;;4915404;29;20032;-66
2021/10/28 09:59:41;;;;;;;80.25;46.95;;;;;;;;;;4915000;29;20135;-67
2021/10/28 10:02:14;;;;;;;74.15;43.72;;;;;;;;;;4913741;29;20496;-66
2021/10/28 10:04:42;;;;;;;86.38;50.10;;;;;;;;;;4914166;29;20042;-68
2021/10/28 10:07:16;;;;;;;73.95;44.55;;;;;;;;;;4917948;29;20039;-63
2021/10/28 10:09:43;;;;;;;76.40;46.13;;;;;;;;;;4895915;29;20488;-64
2021/10/28 10:12:09;;;;;;;76.65;44.40;;;;;;;;;;4913594;29;20024;-62
2021/10/28 10:14:36;;;;;;;74.22;43.05;;;;;;;;;;4919513;29;20159;-64
2021/10/28 10:17:03;;;;;;;74.60;43.63;;;;;;;;;;4914766;29;20036;-67
2021/10/28 10:19:36;;;;;;;77.65;43.55;;;;;;;;;;4897439;29;20030;-63
2021/10/28 10:30:16;;;;;;;68.53;40.92;;;;;;;;;;4916614;29;20076;-66
2021/10/28 11:26:25;;;;;;;56.97;34.67;;;;;;;;;;4873867;29;20129;-66
2021/10/28 11:30:02;;;;;;;56.92;35.10;;;;;;;;;;4874611;29;20062;-62
2021/10/28 12:23:36;;;;;;;34.75;19.90;;;;;;;;;;4749551;30;20590;-63
2021/10/28 12:46:00;;;;;;;37.60;19.60;;;;;;;;;;4731671;30;20052;-63
2021/10/28 12:51:33;;;;;;;27.92;18.63;;;;;;;;;;4756747;29;20058;-59
2021/10/28 13:02:57;;;;;;;29.23;17.23;;;;;;;;;;4846906;29;20486;-60
2021/10/28 13:06:16;;;;;;;29.88;17.55;;;;;;;;;;4852868;29;20040;-59
2021/10/28 13:49:14;;;;;;;21.92;13.73;;;;;;;;;;4835648;29;20041;-61
2021/10/28 14:23:54;;;;;;;32.30;15.95;;;;;;;;;;4769831;29;20395;-62
2021/10/28 15:29:26;;;;;;;49.95;25.60;;;;;;;;;;4894937;29;20092;-64
2021/10/28 16:23:19;;;;;;;132.02;67.03;;;;;;;;;;4914809;29;20455;-66
2021/10/28 16:25:46;;;;;;;172.43;87.95;;;;;;;;;;4911865;29;20032;-62
2021/10/28 16:28:17;;;;;;;153.73;80.40;;;;;;;;;;4914564;29;20094;-63
2021/10/28 16:30:46;;;;;;;178.13;87.15;;;;;;;;;;4899565;29;20036;-65
2021/10/28 16:33:13;;;;;;;155.82;81.05;;;;;;;;;;4897032;29;20543;-65
2021/10/28 16:35:40;;;;;;;167.25;79.25;;;;;;;;;;4906825;29;20032;-66
2021/10/28 16:38:08;;;;;;;149.68;72.85;;;;;;;;;;4889032;29;20037;-65
2021/10/28 16:40:34;;;;;;;134.50;68.95;;;;;;;;;;4892743;29;20130;-66
2021/10/28 16:43:00;;;;;;;126.40;66.10;;;;;;;;;;4897613;29;21003;-66
2021/10/28 16:45:26;;;;;;;133.10;66.05;;;;;;;;;;4896719;29;20023;-65
2021/10/28 16:47:52;;;;;;;137.52;69.90;;;;;;;;;;4882141;29;20497;-65
2021/10/28 16:50:19;;;;;;;134.43;68.78;;;;;;;;;;4906402;29;20085;-65
2021/10/28 16:52:45;;;;;;;143.32;69.22;;;;;;;;;;4887193;29;20036;-64
2021/10/28 16:55:11;;;;;;;126.00;66.10;;;;;;;;;;4879661;29;20037;-63
2021/10/28 16:57:37;;;;;;;111.85;58.17;;;;;;;;;;4878401;29;20121;-64
2021/10/28 17:00:05;;;;;;;108.63;56.55;;;;;;;;;;4877622;29;20021;-64
2021/10/28 17:02:32;;;;;;;109.35;54.67;;;;;;;;;;4886653;29;20064;-64
2021/10/28 17:04:58;;;;;;;105.63;53.85;;;;;;;;;;4897104;29;20077;-65
2021/10/28 17:07:24;;;;;;;115.03;57.58;;;;;;;;;;4895943;29;20035;-65
2021/10/28 17:09:52;;;;;;;107.72;53.28;;;;;;;;;;4896983;29;20025;-65
2021/10/28 17:12:18;;;;;;;102.82;53.55;;;;;;;;;;4887587;29;20040;-64
2021/10/28 17:14:44;;;;;;;94.03;48.20;;;;;;;;;;4860894;29;20065;-66
2021/10/28 17:17:11;;;;;;;91.45;46.60;;;;;;;;;;4890976;29;20061;-63
2021/10/28 17:19:37;;;;;;;85.88;45.22;;;;;;;;;;4896498;29;20473;-65
2021/10/28 17:22:03;;;;;;;95.68;48.92;;;;;;;;;;4897129;29;20115;-64
2021/10/28 17:26:59;;;;;;;80.05;45.63;;;;;;;;;;4895992;29;20033;-62
2021/10/28 17:29:25;;;;;;;93.00;48.70;;;;;;;;;;4893954;29;20116;-65
2021/10/28 17:31:55;;;;;;;99.15;51.17;;;;;;;;;;4886941;29;20083;-65
2021/10/28 17:34:21;;;;;;;89.28;47.45;;;;;;;;;;4877510;29;20033;-64
2021/10/28 17:36:52;;;;;;;89.78;45.35;;;;;;;;;;4876735;29;20037;-64
2021/10/28 17:39:20;;;;;;;92.10;47.20;;;;;;;;;;4879948;29;20081;-64
2021/10/28 17:41:46;;;;;;;90.72;47.10;;;;;;;;;;4885898;29;20028;-64
2021/10/28 17:44:12;;;;;;;84.75;43.58;;;;;;;;;;4877452;29;20032;-62
2021/10/28 17:46:38;;;;;;;90.35;44.65;;;;;;;;;;4879328;29;20031;-66
2021/10/28 17:49:04;;;;;;;85.93;44.05;;;;;;;;;;4884889;29;20032;-64
2021/10/28 17:51:31;;;;;;;80.20;43.03;;;;;;;;;;4881339;29;20037;-64
2021/10/28 17:53:57;;;;;;;79.32;42.97;;;;;;;;;;4877383;29;20128;-65
2021/10/28 17:56:23;;;;;;;74.55;40.95;;;;;;;;;;4879760;29;20131;-67
2021/10/28 17:58:50;;;;;;;66.82;37.42;;;;;;;;;;4878317;29;20049;-64
2021/10/28 18:01:19;;;;;;;72.95;36.63;;;;;;;;;;4876848;29;20124;-63
2021/10/28 18:03:46;;;;;;;65.35;34.72;;;;;;;;;;4885082;29;20032;-65
2021/10/28 18:06:12;;;;;;;62.30;34.67;;;;;;;;;;4885384;29;20107;-62
2021/10/28 18:08:38;;;;;;;58.92;32.38;;;;;;;;;;4885880;29;20062;-62
2021/10/28 18:11:04;;;;;;;63.85;31.90;;;;;;;;;;4885991;29;20437;-62
2021/10/28 18:13:30;;;;;;;59.33;31.20;;;;;;;;;;4894700;29;20033;-65
2021/10/28 18:15:56;;;;;;;57.03;30.33;;;;;;;;;;4889067;29;20405;-63
2021/10/28 18:18:23;;;;;;;59.00;31.33;;;;;;;;;;4889818;29;20160;-62
2021/10/28 18:20:51;;;;;;;57.50;31.85;;;;;;;;;;4881398;29;20025;-62
2021/10/28 18:23:17;;;;;;;59.72;29.98;;;;;;;;;;4887417;29;20040;-61
2021/10/28 18:25:44;;;;;;;56.75;30.10;;;;;;;;;;4886379;29;20028;-63
2021/10/28 18:28:10;;;;;;;58.35;31.02;;;;;;;;;;4884181;29;20481;-62
2021/10/28 18:30:37;;;;;;;54.28;30.33;;;;;;;;;;4892851;29;20035;-62
2021/10/28 18:33:04;;;;;;;60.88;31.48;;;;;;;;;;4881513;29;20056;-62
2021/10/28 18:35:30;;;;;;;58.85;31.50;;;;;;;;;;4876059;29;20114;-65
2021/10/28 18:37:56;;;;;;;62.85;32.58;;;;;;;;;;4860011;29;20049;-65
2021/10/28 18:40:23;;;;;;;61.33;33.30;;;;;;;;;;4876614;29;20498;-64
2021/10/28 18:42:49;;;;;;;64.38;32.88;;;;;;;;;;4876268;29;20178;-64
2021/10/28 18:45:16;;;;;;;59.63;33.33;;;;;;;;;;4871432;29;20412;-62
2021/10/28 18:47:43;;;;;;;63.22;34.58;;;;;;;;;;4904800;29;20675;-62
2021/10/28 18:50:09;;;;;;;68.00;34.17;;;;;;;;;;4902427;29;20046;-64
2021/10/28 18:52:36;;;;;;;66.45;35.60;;;;;;;;;;4904066;29;20036;-64
2021/10/28 18:55:03;;;;;;;75.95;38.13;;;;;;;;;;4899720;29;20040;-63
2021/10/28 18:57:29;;;;;;;74.55;37.38;;;;;;;;;;4891482;29;20052;-63
2021/10/28 18:59:55;;;;;;;71.10;36.97;;;;;;;;;;4885765;29;20039;-64
2021/10/28 19:02:24;;;;;;;80.32;39.80;;;;;;;;;;4894848;29;20065;-68
2021/10/28 19:04:50;;;;;;;80.13;41.15;;;;;;;;;;4894852;29;20116;-62
2021/10/28 19:07:16;;;;;;;83.03;41.70;;;;;;;;;;4895218;29;20025;-64
2021/10/28 19:09:42;;;;;;;79.60;42.03;;;;;;;;;;4895188;29;20025;-63
2021/10/28 19:12:09;;;;;;;78.22;40.20;;;;;;;;;;4895004;29;20029;-65
2021/10/28 19:14:38;;;;;;;94.90;45.17;;;;;;;;;;4895660;29;20049;-64
2021/10/28 19:17:04;;;;;;;89.05;45.28;;;;;;;;;;4895122;29;20032;-65
2021/10/28 19:19:30;;;;;;;87.13;43.83;;;;;;;;;;4894829;29;20104;-63
2021/10/28 19:21:56;;;;;;;83.68;42.97;;;;;;;;;;4896040;29;20103;-65
2021/10/28 19:24:23;;;;;;;79.53;41.40;;;;;;;;;;4898687;29;20032;-63
2021/10/28 19:26:49;;;;;;;73.68;40.38;;;;;;;;;;4891721;29;20469;-66
2021/10/28 19:29:17;;;;;;;71.15;37.78;;;;;;;;;;4888043;29;20568;-62
2021/10/28 19:31:54;;;;;;;69.90;37.17;;;;;;;;;;4889022;29;20028;-64
2021/10/28 19:34:21;;;;;;;66.15;35.67;;;;;;;;;;4888399;29;20037;-64
2021/10/28 19:47:39;;;;;;;61.72;31.42;;;;;;;;;;4880196;29;20047;-63
2021/10/28 19:50:07;;;;;;;63.83;31.33;;;;;;;;;;4878842;29;20465;-64
2021/10/28 19:52:33;;;;;;;57.47;30.50;;;;;;;;;;4883950;29;20089;-64
2021/10/28 19:55:03;;;;;;;57.30;30.35;;;;;;;;;;4887382;29;20120;-63
2021/10/28 19:57:33;;;;;;;55.47;30.77;;;;;;;;;;4887766;29;20032;-62
2021/10/28 20:00:13;;;;;;;60.75;31.00;;;;;;;;;;4886559;29;20089;-64
2021/10/28 20:21:05;;;;;;;64.10;32.03;;;;;;;;;;4897620;29;20604;-61
2021/10/28 20:23:31;;;;;;;59.20;30.65;;;;;;;;;;4897558;29;20032;-60
2021/10/28 20:25:58;;;;;;;64.75;32.35;;;;;;;;;;4896930;29;20031;-60
2021/10/28 20:28:25;;;;;;;62.90;33.03;;;;;;;;;;4889584;29;20414;-62
2021/10/28 20:30:58;;;;;;;64.78;34.15;;;;;;;;;;4888297;29;20025;-63
2021/10/28 20:33:28;;;;;;;70.57;35.05;;;;;;;;;;4887472;29;20033;-66
2021/10/28 20:38:39;;;;;;;70.88;36.60;;;;;;;;;;4888964;29;20051;-68
2021/10/28 20:41:05;;;;;;;77.03;37.50;;;;;;;;;;4888286;29;20485;-62
2021/10/28 20:43:31;;;;;;;71.93;38.28;;;;;;;;;;4892489;29;20067;-61
2021/10/28 20:45:57;;;;;;;76.57;37.67;;;;;;;;;;4896548;29;20857;-60
2021/10/28 20:48:24;;;;;;;71.55;38.67;;;;;;;;;;4897375;29;20364;-60
2021/10/28 20:50:51;;;;;;;79.78;39.72;;;;;;;;;;4897504;29;20028;-60
2021/10/28 20:53:18;;;;;;;81.32;41.38;;;;;;;;;;4897445;29;20067;-62
2021/10/28 20:55:44;;;;;;;83.65;41.38;;;;;;;;;;4897036;29;20029;-62
2021/10/28 20:58:10;;;;;;;84.70;41.90;;;;;;;;;;4896811;29;20088;-61
2021/10/28 21:00:36;;;;;;;87.55;44.60;;;;;;;;;;4897443;29;20056;-60
2021/10/28 21:03:03;;;;;;;94.13;46.40;;;;;;;;;;4896626;29;20504;-60
2021/10/28 21:05:29;;;;;;;101.00;47.30;;;;;;;;;;4897210;29;20037;-62
2021/10/28 21:07:56;;;;;;;91.55;46.10;;;;;;;;;;4896989;29;20033;-62
2021/10/28 21:10:25;;;;;;;97.40;47.13;;;;;;;;;;4896642;29;20927;-61
2021/10/28 21:12:51;;;;;;;99.07;46.25;;;;;;;;;;4897232;29;20021;-60
2021/10/28 21:15:18;;;;;;;81.85;40.17;;;;;;;;;;4889348;29;20024;-62
2021/10/28 21:17:44;;;;;;;81.90;40.72;;;;;;;;;;4886250;29;20477;-59
2021/10/28 21:20:11;;;;;;;89.05;43.95;;;;;;;;;;4885314;29;20029;-65
2021/10/28 21:22:38;;;;;;;85.43;40.05;;;;;;;;;;4886452;29;20033;-59
2021/10/28 21:25:05;;;;;;;93.75;43.78;;;;;;;;;;4870134;29;20057;-59
2021/10/28 21:27:31;;;;;;;89.70;42.08;;;;;;;;;;4890476;29;20481;-60
2021/10/28 21:29:57;;;;;;;74.60;36.35;;;;;;;;;;4885854;29;20033;-61
2021/10/28 21:32:23;;;;;;;60.08;31.83;;;;;;;;;;4885410;29;20041;-61
2021/10/28 21:34:49;;;;;;;62.15;30.10;;;;;;;;;;4887141;29;20028;-61
2021/10/28 21:37:18;;;;;;;59.38;30.30;;;;;;;;;;4885165;29;20047;-62
2021/10/28 21:39:44;;;;;;;60.30;30.08;;;;;;;;;;4890373;29;20032;-60
2021/10/28 21:42:11;;;;;;;58.42;30.08;;;;;;;;;;4895825;29;20172;-60
2021/10/28 21:44:38;;;;;;;60.38;30.08;;;;;;;;;;4893060;29;20032;-61
2021/10/28 21:47:05;;;;;;;54.90;29.05;;;;;;;;;;4882511;29;20033;-61
2021/10/28 21:49:31;;;;;;;56.78;28.05;;;;;;;;;;4878272;29;20043;-60
2021/10/28 21:52:08;;;;;;;46.85;26.83;;;;;;;;;;4877800;29;20047;-60
2021/10/28 21:57:13;;;;;;;52.63;26.10;;;;;;;;;;4877894;29;20036;-61
2021/10/28 22:26:36;;;;;;;43.60;24.80;;;;;;;;;;4877548;29;20045;-60
2021/10/28 22:29:03;;;;;;;46.13;25.08;;;;;;;;;;4877678;29;20069;-60
2021/10/28 22:31:29;;;;;;;44.33;24.80;;;;;;;;;;4877415;29;20129;-60
2021/10/28 22:33:55;;;;;;;46.35;24.70;;;;;;;;;;4877327;29;20041;-60
2021/10/28 22:36:28;;;;;;;45.58;23.88;;;;;;;;;;4860577;29;20074;-62
2021/10/28 22:38:58;;;;;;;40.55;24.38;;;;;;;;;;4860408;29;20036;-62
2021/10/28 22:41:25;;;;;;;38.60;23.13;;;;;;;;;;4877236;29;20380;-61
2021/10/28 22:43:52;;;;;;;44.47;23.95;;;;;;;;;;4876891;29;20037;-63
2021/10/28 22:46:19;;;;;;;43.83;24.13;;;;;;;;;;4877145;29;20025;-61
2021/10/28 22:48:45;;;;;;;40.45;23.10;;;;;;;;;;4877025;29;20086;-62
2021/10/28 22:51:11;;;;;;;44.08;24.52;;;;;;;;;;4876954;29;20032;-62
2021/10/28 22:53:38;;;;;;;45.75;25.02;;;;;;;;;;4877035;29;20029;-61
2021/10/28 22:56:04;;;;;;;55.33;27.40;;;;;;;;;;4877172;29;20033;-60
2021/10/28 22:58:33;;;;;;;53.63;27.20;;;;;;;;;;4880157;29;20486;-60
2021/10/28 23:01:17;;;;;;;52.25;27.75;;;;;;;;;;4880498;29;20037;-60
2021/10/28 23:16:56;;;;;;;67.03;33.22;;;;;;;;;;4880823;29;20057;-62
2021/10/28 23:22:07;;;;;;;59.75;33.70;;;;;;;;;;4880667;29;20036;-61
2021/10/28 23:24:34;;;;;;;61.40;33.30;;;;;;;;;;4880561;29;20032;-62
2021/10/28 23:27:00;;;;;;;61.08;33.65;;;;;;;;;;4880372;29;20028;-59
2021/10/28 23:29:26;;;;;;;57.33;32.20;;;;;;;;;;4863810;29;20035;-61
2021/10/28 23:31:52;;;;;;;60.78;32.72;;;;;;;;;;4880561;29;20410;-61
2021/10/28 23:34:18;;;;;;;57.92;31.77;;;;;;;;;;4880643;29;20029;-61
2021/10/28 23:36:45;;;;;;;61.95;31.50;;;;;;;;;;4880224;29;20036;-61
2021/10/28 23:39:11;;;;;;;55.40;30.17;;;;;;;;;;4880527;29;20044;-62
2021/10/28 23:41:38;;;;;;;51.13;30.08;;;;;;;;;;4880243;29;20511;-61
2021/10/28 23:44:04;;;;;;;52.30;30.10;;;;;;;;;;4880035;29;20409;-62
2021/10/28 23:46:31;;;;;;;51.78;29.33;;;;;;;;;;4880261;29;20029;-61
2021/10/28 23:48:57;;;;;;;51.92;29.65;;;;;;;;;;4880306;29;20032;-61
2021/10/28 23:51:23;;;;;;;53.15;28.75;;;;;;;;;;4880262;29;20081;-62
2021/10/28 23:53:49;;;;;;;53.08;31.52;;;;;;;;;;4879816;29;20548;-63
2021/10/28 23:56:15;;;;;;;57.92;31.35;;;;;;;;;;4880135;29;20029;-62
2021/10/28 23:58:41;;;;;;;53.60;30.90;;;;;;;;;;4879897;29;20037;-61
